sensor_id;sensor_type;location;lat;lon;timestamp;pressure;altitude;pressure_sealevel;temperature;humidity
37634;BME280;32048;49.902;22.508;2022-08-21T00:00:17;98173.94;;;18.48;100.00
37634;BME280;32048;49.902;22.508;2022-08-21T00:03:04;98171.69;;;18.43;100.00
37634;BME280;32048;49.902;22.508;2022-08-21T00:05:35;98168.44;;;18.40;100.00
37634;BME280;32048;49.902;22.508;2022-08-21T00:08:03;98172.25;;;18.37;100.00
37634;BME280;32048;49.902;22.508;2022-08-21T00:10:30;98167.22;;;18.24;100.00
37634;BME280;32048;49.902;22.508;2022-08-21T00:12:58;98169.19;;;18.13;100.00
37634;BME280;32048;49.902;22.508;2022-08-21T00:15:29;98170.75;;;18.05;100.00
37634;BME280;32048;49.902;22.508;2022-08-21T00:17:56;98161.47;;;18.00;100.00
37634;BME280;32048;49.902;22.508;2022-08-21T00:20:23;98170.91;;;17.94;100.00
37634;BME280;32048;49.902;22.508;2022-08-21T00:22:50;98176.50;;;17.91;100.00
37634;BME280;32048;49.902;22.508;2022-08-21T00:25:18;98167.94;;;17.88;100.00
37634;BME280;32048;49.902;22.508;2022-08-21T00:27:52;98165.41;;;17.86;100.00
37634;BME280;32048;49.902;22.508;2022-08-21T00:30:21;98165.81;;;17.81;100.00
37634;BME280;32048;49.902;22.508;2022-08-21T00:32:50;98171.56;;;17.77;100.00
37634;BME280;32048;49.902;22.508;2022-08-21T00:35:22;98155.25;;;17.70;100.00
37634;BME280;32048;49.902;22.508;2022-08-21T00:37:50;98157.50;;;17.65;100.00
37634;BME280;32048;49.902;22.508;2022-08-21T00:40:21;98150.03;;;17.59;100.00
37634;BME280;32048;49.902;22.508;2022-08-21T00:42:49;98147.91;;;17.53;100.00
37634;BME280;32048;49.902;22.508;2022-08-21T00:45:25;98140.31;;;17.48;100.00
37634;BME280;32048;49.902;22.508;2022-08-21T00:47:52;98138.91;;;17.44;100.00
37634;BME280;32048;49.902;22.508;2022-08-21T00:50:22;98135.53;;;17.32;100.00
37634;BME280;32048;49.902;22.508;2022-08-21T00:52:51;98137.22;;;17.33;100.00
37634;BME280;32048;49.902;22.508;2022-08-21T00:55:20;98132.97;;;17.31;100.00
37634;BME280;32048;49.902;22.508;2022-08-21T00:57:54;98136.94;;;17.27;100.00
37634;BME280;32048;49.902;22.508;2022-08-21T01:00:26;98136.47;;;17.21;100.00
37634;BME280;32048;49.902;22.508;2022-08-21T01:02:56;98131.13;;;17.12;100.00
37634;BME280;32048;49.902;22.508;2022-08-21T01:05:24;98136.16;;;17.05;100.00
37634;BME280;32048;49.902;22.508;2022-08-21T01:07:50;98133.91;;;17.00;100.00
37634;BME280;32048;49.902;22.508;2022-08-21T01:10:19;98134.19;;;16.97;100.00
37634;BME280;32048;49.902;22.508;2022-08-21T01:12:55;98133.59;;;16.94;100.00
37634;BME280;32048;49.902;22.508;2022-08-21T01:15:24;98130.94;;;16.94;100.00
37634;BME280;32048;49.902;22.508;2022-08-21T01:17:53;98132.88;;;16.92;100.00
37634;BME280;32048;49.902;22.508;2022-08-21T01:20:20;98133.28;;;16.87;100.00
37634;BME280;32048;49.902;22.508;2022-08-21T01:22:59;98135.38;;;16.83;100.00
37634;BME280;32048;49.902;22.508;2022-08-21T01:25:26;98130.09;;;16.72;100.00
37634;BME280;32048;49.902;22.508;2022-08-21T01:27:52;98128.97;;;16.65;100.00
37634;BME280;32048;49.902;22.508;2022-08-21T01:30:23;98130.06;;;16.62;100.00
37634;BME280;32048;49.902;22.508;2022-08-21T01:32:52;98127.69;;;16.59;100.00
37634;BME280;32048;49.902;22.508;2022-08-21T01:35:20;98122.59;;;16.56;100.00
37634;BME280;32048;49.902;22.508;2022-08-21T01:37:48;98126.38;;;16.54;100.00
37634;BME280;32048;49.902;22.508;2022-08-21T01:40:15;98125.66;;;16.52;100.00
37634;BME280;32048;49.902;22.508;2022-08-21T01:42:44;98124.69;;;16.53;100.00
37634;BME280;32048;49.902;22.508;2022-08-21T01:45:13;98122.28;;;16.50;100.00
37634;BME280;32048;49.902;22.508;2022-08-21T01:47:41;98116.13;;;16.49;100.00
37634;BME280;32048;49.902;22.508;2022-08-21T01:50:12;98124.38;;;16.46;100.00
37634;BME280;32048;49.902;22.508;2022-08-21T01:52:40;98124.78;;;16.41;100.00
37634;BME280;32048;49.902;22.508;2022-08-21T01:55:09;98117.19;;;16.37;100.00
37634;BME280;32048;49.902;22.508;2022-08-21T01:57:37;98118.28;;;16.34;100.00
37634;BME280;32048;49.902;22.508;2022-08-21T02:00:06;98114.78;;;16.34;100.00
37634;BME280;32048;49.902;22.508;2022-08-21T02:02:35;98120.25;;;16.32;100.00
37634;BME280;32048;49.902;22.508;2022-08-21T02:05:03;98116.28;;;16.27;100.00
37634;BME280;32048;49.902;22.508;2022-08-21T02:07:39;98115.13;;;16.19;100.00
37634;BME280;32048;49.902;22.508;2022-08-21T02:10:07;98116.22;;;16.17;100.00
37634;BME280;32048;49.902;22.508;2022-08-21T02:12:35;98114.59;;;16.05;100.00
37634;BME280;32048;49.902;22.508;2022-08-21T02:15:04;98110.97;;;16.06;100.00
37634;BME280;32048;49.902;22.508;2022-08-21T02:17:56;98114.75;;;16.03;100.00
37634;BME280;32048;49.902;22.508;2022-08-21T02:20:33;98113.88;;;16.03;100.00
37634;BME280;32048;49.902;22.508;2022-08-21T02:23:01;98116.41;;;16.04;100.00
37634;BME280;32048;49.902;22.508;2022-08-21T02:25:28;98115.44;;;16.05;100.00
37634;BME280;32048;49.902;22.508;2022-08-21T02:27:56;98110.50;;;16.00;100.00
37634;BME280;32048;49.902;22.508;2022-08-21T02:30:29;98110.88;;;15.96;100.00
37634;BME280;32048;49.902;22.508;2022-08-21T02:32:57;98107.50;;;15.94;100.00
37634;BME280;32048;49.902;22.508;2022-08-21T02:35:25;98112.84;;;15.94;100.00
37634;BME280;32048;49.902;22.508;2022-08-21T02:40:22;98114.53;;;15.95;100.00
37634;BME280;32048;49.902;22.508;2022-08-21T02:42:50;98111.75;;;15.96;100.00
37634;BME280;32048;49.902;22.508;2022-08-21T02:45:17;98112.59;;;15.97;100.00
37634;BME280;32048;49.902;22.508;2022-08-21T02:47:53;98105.94;;;15.91;100.00
37634;BME280;32048;49.902;22.508;2022-08-21T02:50:27;98106.09;;;15.90;100.00
37634;BME280;32048;49.902;22.508;2022-08-21T02:52:55;98108.16;;;15.86;100.00
37634;BME280;32048;49.902;22.508;2022-08-21T02:55:26;98106.72;;;15.82;100.00
37634;BME280;32048;49.902;22.508;2022-08-21T02:57:54;98104.34;;;15.79;100.00
37634;BME280;32048;49.902;22.508;2022-08-21T03:00:25;98106.41;;;15.75;100.00
37634;BME280;32048;49.902;22.508;2022-08-21T03:02:52;98102.19;;;15.73;100.00
37634;BME280;32048;49.902;22.508;2022-08-21T03:05:20;98103.25;;;15.70;100.00
37634;BME280;32048;49.902;22.508;2022-08-21T03:07:47;98105.31;;;15.67;100.00
37634;BME280;32048;49.902;22.508;2022-08-21T03:10:15;98108.69;;;15.69;100.00
37634;BME280;32048;49.902;22.508;2022-08-21T03:12:43;98110.63;;;15.67;100.00
37634;BME280;32048;49.902;22.508;2022-08-21T03:15:13;98095.66;;;15.66;100.00
37634;BME280;32048;49.902;22.508;2022-08-21T03:17:40;98107.13;;;15.66;100.00
37634;BME280;32048;49.902;22.508;2022-08-21T03:20:08;98102.91;;;15.64;100.00
37634;BME280;32048;49.902;22.508;2022-08-21T03:22:35;98105.69;;;15.62;100.00
37634;BME280;32048;49.902;22.508;2022-08-21T03:25:03;98102.19;;;15.62;100.00
37634;BME280;32048;49.902;22.508;2022-08-21T03:27:32;98104.13;;;15.59;100.00
37634;BME280;32048;49.902;22.508;2022-08-21T03:30:02;98097.97;;;15.59;100.00
37634;BME280;32048;49.902;22.508;2022-08-21T03:32:30;98108.34;;;15.62;100.00
37634;BME280;32048;49.902;22.508;2022-08-21T03:34:58;98108.25;;;15.64;100.00
37634;BME280;32048;49.902;22.508;2022-08-21T03:37:25;98106.69;;;15.61;100.00
37634;BME280;32048;49.902;22.508;2022-08-21T03:39:52;98113.94;;;15.59;100.00
37634;BME280;32048;49.902;22.508;2022-08-21T03:42:19;98105.34;;;15.55;100.00
37634;BME280;32048;49.902;22.508;2022-08-21T03:44:46;98102.69;;;15.55;100.00
37634;BME280;32048;49.902;22.508;2022-08-21T03:47:13;98106.06;;;15.57;100.00
37634;BME280;32048;49.902;22.508;2022-08-21T03:49:40;98097.88;;;15.61;100.00
37634;BME280;32048;49.902;22.508;2022-08-21T03:52:08;98097.47;;;15.65;100.00
37634;BME280;32048;49.902;22.508;2022-08-21T03:54:34;98098.03;;;15.69;100.00
37634;BME280;32048;49.902;22.508;2022-08-21T03:57:02;98099.41;;;15.74;100.00
37634;BME280;32048;49.902;22.508;2022-08-21T03:59:29;98103.50;;;15.78;100.00
37634;BME280;32048;49.902;22.508;2022-08-21T04:02:01;98111.09;;;15.83;100.00
37634;BME280;32048;49.902;22.508;2022-08-21T04:04:28;98109.00;;;15.87;100.00
37634;BME280;32048;49.902;22.508;2022-08-21T04:06:56;98100.91;;;15.88;100.00
37634;BME280;32048;49.902;22.508;2022-08-21T04:09:24;98104.84;;;15.94;100.00
37634;BME280;32048;49.902;22.508;2022-08-21T04:11:51;98105.72;;;15.94;100.00
37634;BME280;32048;49.902;22.508;2022-08-21T04:14:19;98109.09;;;15.96;100.00
37634;BME280;32048;49.902;22.508;2022-08-21T04:16:46;98114.25;;;15.98;100.00
37634;BME280;32048;49.902;22.508;2022-08-21T04:19:13;98118.81;;;16.07;100.00
37634;BME280;32048;49.902;22.508;2022-08-21T04:21:41;98119.72;;;16.17;100.00
37634;BME280;32048;49.902;22.508;2022-08-21T04:24:10;98119.66;;;16.29;100.00
37634;BME280;32048;49.902;22.508;2022-08-21T04:26:38;98115.38;;;16.37;100.00
37634;BME280;32048;49.902;22.508;2022-08-21T04:29:06;98113.00;;;16.44;100.00
37634;BME280;32048;49.902;22.508;2022-08-21T04:31:36;98118.78;;;16.49;100.00
37634;BME280;32048;49.902;22.508;2022-08-21T04:34:04;98127.09;;;16.56;100.00
37634;BME280;32048;49.902;22.508;2022-08-21T04:36:33;98130.91;;;16.63;100.00
37634;BME280;32048;49.902;22.508;2022-08-21T04:39:00;98129.16;;;16.73;100.00
37634;BME280;32048;49.902;22.508;2022-08-21T04:41:29;98127.97;;;16.87;100.00
37634;BME280;32048;49.902;22.508;2022-08-21T04:43:57;98140.78;;;17.03;100.00
37634;BME280;32048;49.902;22.508;2022-08-21T04:46:24;98143.94;;;17.18;100.00
37634;BME280;32048;49.902;22.508;2022-08-21T04:48:51;98140.03;;;17.32;100.00
37634;BME280;32048;49.902;22.508;2022-08-21T04:51:25;98142.16;;;17.48;100.00
37634;BME280;32048;49.902;22.508;2022-08-21T04:54:00;98144.84;;;17.67;100.00
37634;BME280;32048;49.902;22.508;2022-08-21T04:56:37;98143.91;;;17.88;100.00
37634;BME280;32048;49.902;22.508;2022-08-21T04:59:11;98147.41;;;18.07;100.00
37634;BME280;32048;49.902;22.508;2022-08-21T05:01:40;98147.38;;;18.27;100.00
37634;BME280;32048;49.902;22.508;2022-08-21T05:04:10;98143.38;;;18.51;100.00
37634;BME280;32048;49.902;22.508;2022-08-21T05:06:41;98151.03;;;18.83;100.00
37634;BME280;32048;49.902;22.508;2022-08-21T05:09:13;98145.53;;;19.22;100.00
37634;BME280;32048;49.902;22.508;2022-08-21T05:11:41;98142.53;;;19.70;100.00
37634;BME280;32048;49.902;22.508;2022-08-21T05:14:10;98150.50;;;20.16;100.00
37634;BME280;32048;49.902;22.508;2022-08-21T05:16:38;98150.91;;;20.73;100.00
37634;BME280;32048;49.902;22.508;2022-08-21T05:19:06;98151.66;;;21.34;100.00
37634;BME280;32048;49.902;22.508;2022-08-21T05:21:34;98151.84;;;21.92;100.00
37634;BME280;32048;49.902;22.508;2022-08-21T05:24:02;98147.16;;;22.43;100.00
37634;BME280;32048;49.902;22.508;2022-08-21T05:26:29;98146.69;;;22.95;96.07
37634;BME280;32048;49.902;22.508;2022-08-21T05:28:57;98143.94;;;23.51;92.31
37634;BME280;32048;49.902;22.508;2022-08-21T05:31:24;98146.34;;;24.00;85.27
37634;BME280;32048;49.902;22.508;2022-08-21T05:33:51;98150.09;;;24.37;83.67
37634;BME280;32048;49.902;22.508;2022-08-21T05:36:18;98147.38;;;24.75;81.24
37634;BME280;32048;49.902;22.508;2022-08-21T05:38:45;98147.41;;;24.90;77.78
37634;BME280;32048;49.902;22.508;2022-08-21T05:41:13;98143.13;;;25.25;77.99
37634;BME280;32048;49.902;22.508;2022-08-21T05:43:40;98152.00;;;25.56;74.95
37634;BME280;32048;49.902;22.508;2022-08-21T05:46:07;98144.09;;;25.90;73.81
37634;BME280;32048;49.902;22.508;2022-08-21T05:48:35;98151.72;;;26.30;71.57
37634;BME280;32048;49.902;22.508;2022-08-21T05:51:08;98143.59;;;26.51;68.91
37634;BME280;32048;49.902;22.508;2022-08-21T05:53:36;98138.56;;;26.48;69.32
37634;BME280;32048;49.902;22.508;2022-08-21T05:56:04;98139.81;;;26.74;66.68
37634;BME280;32048;49.902;22.508;2022-08-21T05:58:32;98139.84;;;26.81;67.41
37634;BME280;32048;49.902;22.508;2022-08-21T06:01:01;98147.44;;;26.92;66.28
37634;BME280;32048;49.902;22.508;2022-08-21T06:03:30;98142.03;;;26.99;66.71
37634;BME280;32048;49.902;22.508;2022-08-21T06:05:58;98140.47;;;27.11;63.99
37634;BME280;32048;49.902;22.508;2022-08-21T06:08:25;98134.69;;;27.21;65.15
37634;BME280;32048;49.902;22.508;2022-08-21T06:10:53;98139.19;;;27.55;65.31
37634;BME280;32048;49.902;22.508;2022-08-21T06:13:21;98134.56;;;28.10;62.60
37634;BME280;32048;49.902;22.508;2022-08-21T06:15:49;98132.50;;;28.66;60.58
37634;BME280;32048;49.902;22.508;2022-08-21T06:18:17;98131.63;;;28.65;57.31
37634;BME280;32048;49.902;22.508;2022-08-21T06:20:44;98135.56;;;28.96;57.11
37634;BME280;32048;49.902;22.508;2022-08-21T06:23:11;98133.63;;;29.16;56.93
37634;BME280;32048;49.902;22.508;2022-08-21T06:25:39;98134.69;;;29.22;55.27
37634;BME280;32048;49.902;22.508;2022-08-21T06:28:10;98134.13;;;29.52;54.69
37634;BME280;32048;49.902;22.508;2022-08-21T06:30:38;98136.88;;;29.90;52.59
37634;BME280;32048;49.902;22.508;2022-08-21T06:33:05;98137.09;;;30.20;51.01
37634;BME280;32048;49.902;22.508;2022-08-21T06:35:34;98130.03;;;30.38;50.45
37634;BME280;32048;49.902;22.508;2022-08-21T06:38:02;98131.00;;;30.50;49.97
37634;BME280;32048;49.902;22.508;2022-08-21T06:40:30;98132.78;;;30.81;50.08
37634;BME280;32048;49.902;22.508;2022-08-21T06:43:13;98138.81;;;31.27;48.79
37634;BME280;32048;49.902;22.508;2022-08-21T06:45:41;98137.56;;;31.78;47.27
37634;BME280;32048;49.902;22.508;2022-08-21T06:48:08;98126.59;;;31.66;46.71
37634;BME280;32048;49.902;22.508;2022-08-21T06:50:39;98125.81;;;32.20;45.26
37634;BME280;32048;49.902;22.508;2022-08-21T06:53:10;98121.25;;;32.79;43.32
37634;BME280;32048;49.902;22.508;2022-08-21T06:55:38;98121.47;;;33.01;42.51
37634;BME280;32048;49.902;22.508;2022-08-21T06:58:05;98122.84;;;33.27;41.76
37634;BME280;32048;49.902;22.508;2022-08-21T07:00:34;98122.03;;;33.67;40.79
37634;BME280;32048;49.902;22.508;2022-08-21T07:03:01;98129.22;;;33.85;39.77
37634;BME280;32048;49.902;22.508;2022-08-21T07:05:29;98122.81;;;34.25;40.33
37634;BME280;32048;49.902;22.508;2022-08-21T07:07:57;98124.75;;;34.58;37.38
37634;BME280;32048;49.902;22.508;2022-08-21T07:10:25;98113.69;;;34.70;38.38
37634;BME280;32048;49.902;22.508;2022-08-21T07:12:52;98113.38;;;35.06;37.18
37634;BME280;32048;49.902;22.508;2022-08-21T07:15:30;98115.25;;;35.66;36.99
37634;BME280;32048;49.902;22.508;2022-08-21T07:17:59;98108.53;;;35.57;35.25
37634;BME280;32048;49.902;22.508;2022-08-21T07:20:26;98102.56;;;34.99;37.78
37634;BME280;32048;49.902;22.508;2022-08-21T07:22:55;98106.63;;;35.13;37.30
37634;BME280;32048;49.902;22.508;2022-08-21T07:25:23;98109.44;;;34.80;37.36
37634;BME280;32048;49.902;22.508;2022-08-21T07:27:50;98103.97;;;35.02;37.17
37634;BME280;32048;49.902;22.508;2022-08-21T07:30:17;98104.03;;;35.24;36.48
37634;BME280;32048;49.902;22.508;2022-08-21T07:32:44;98107.72;;;35.56;36.48
37634;BME280;32048;49.902;22.508;2022-08-21T07:35:11;98097.72;;;35.23;36.22
37634;BME280;32048;49.902;22.508;2022-08-21T07:37:38;98107.34;;;35.26;36.16
37634;BME280;32048;49.902;22.508;2022-08-21T07:40:05;98099.97;;;35.31;35.99
37634;BME280;32048;49.902;22.508;2022-08-21T07:42:32;98093.19;;;35.61;36.42
37634;BME280;32048;49.902;22.508;2022-08-21T07:44:59;98087.72;;;36.15;35.16
37634;BME280;32048;49.902;22.508;2022-08-21T07:47:26;98089.59;;;36.42;33.65
37634;BME280;32048;49.902;22.508;2022-08-21T07:50:10;98090.50;;;36.20;34.35
37634;BME280;32048;49.902;22.508;2022-08-21T07:52:38;98081.59;;;36.08;34.62
37634;BME280;32048;49.902;22.508;2022-08-21T07:55:07;98079.50;;;36.20;35.01
37634;BME280;32048;49.902;22.508;2022-08-21T07:57:34;98076.00;;;36.62;34.10
37634;BME280;32048;49.902;22.508;2022-08-21T08:00:04;98075.75;;;36.69;32.98
37634;BME280;32048;49.902;22.508;2022-08-21T08:02:31;98082.06;;;36.65;34.32
37634;BME280;32048;49.902;22.508;2022-08-21T08:05:09;98082.53;;;37.04;33.63
37634;BME280;32048;49.902;22.508;2022-08-21T08:07:38;98087.06;;;37.26;31.87
37634;BME280;32048;49.902;22.508;2022-08-21T08:10:07;98083.44;;;37.15;33.37
37634;BME280;32048;49.902;22.508;2022-08-21T08:12:36;98086.50;;;37.23;32.82
37634;BME280;32048;49.902;22.508;2022-08-21T08:15:05;98080.19;;;37.33;32.71
37634;BME280;32048;49.902;22.508;2022-08-21T08:17:33;98083.56;;;37.45;31.91
37634;BME280;32048;49.902;22.508;2022-08-21T08:20:00;98076.91;;;37.41;32.45
37634;BME280;32048;49.902;22.508;2022-08-21T08:22:27;98075.88;;;37.58;32.28
37634;BME280;32048;49.902;22.508;2022-08-21T08:24:55;98070.41;;;37.68;31.60
37634;BME280;32048;49.902;22.508;2022-08-21T08:27:22;98077.88;;;37.88;31.02
37634;BME280;32048;49.902;22.508;2022-08-21T08:29:49;98070.97;;;37.70;31.62
37634;BME280;32048;49.902;22.508;2022-08-21T08:32:17;98067.22;;;37.29;32.04
37634;BME280;32048;49.902;22.508;2022-08-21T08:34:44;98071.09;;;37.33;33.08
37634;BME280;32048;49.902;22.508;2022-08-21T08:37:13;98069.88;;;37.81;32.19
37634;BME280;32048;49.902;22.508;2022-08-21T08:39:40;98074.34;;;38.08;31.07
37634;BME280;32048;49.902;22.508;2022-08-21T08:42:11;98071.00;;;38.11;31.72
37634;BME280;32048;49.902;22.508;2022-08-21T08:45:04;98073.47;;;38.69;30.62
37634;BME280;32048;49.902;22.508;2022-08-21T08:47:35;98068.28;;;39.33;29.08
37634;BME280;32048;49.902;22.508;2022-08-21T08:50:12;98075.75;;;39.32;29.25
37634;BME280;32048;49.902;22.508;2022-08-21T08:52:49;98069.63;;;39.45;30.20
37634;BME280;32048;49.902;22.508;2022-08-21T08:55:28;98067.75;;;39.85;29.57
37634;BME280;32048;49.902;22.508;2022-08-21T08:57:57;98071.38;;;39.76;28.51
37634;BME280;32048;49.902;22.508;2022-08-21T09:00:24;98066.13;;;39.24;29.14
37634;BME280;32048;49.902;22.508;2022-08-21T09:02:55;98060.38;;;39.05;29.60
37634;BME280;32048;49.902;22.508;2022-08-21T09:05:26;98062.34;;;38.89;29.34
37634;BME280;32048;49.902;22.508;2022-08-21T09:11:01;98060.91;;;37.28;31.39
37634;BME280;32048;49.902;22.508;2022-08-21T09:17:08;98042.59;;;38.00;31.60
37634;BME280;32048;49.902;22.508;2022-08-21T09:20:07;98053.09;;;38.24;30.30
37634;BME280;32048;49.902;22.508;2022-08-21T09:23:15;98044.50;;;38.66;30.74
37634;BME280;32048;49.902;22.508;2022-08-21T09:25:42;98054.38;;;38.93;29.89
37634;BME280;32048;49.902;22.508;2022-08-21T09:28:11;98043.63;;;38.81;28.91
37634;BME280;32048;49.902;22.508;2022-08-21T09:30:40;98044.25;;;38.47;29.98
37634;BME280;32048;49.902;22.508;2022-08-21T09:33:11;98053.38;;;38.33;29.79
37634;BME280;32048;49.902;22.508;2022-08-21T09:36:08;98036.84;;;38.02;30.20
37634;BME280;32048;49.902;22.508;2022-08-21T09:38:36;98030.19;;;37.98;30.44
37634;BME280;32048;49.902;22.508;2022-08-21T09:41:09;98033.47;;;37.64;30.83
37634;BME280;32048;49.902;22.508;2022-08-21T09:43:37;98024.53;;;37.16;32.31
37634;BME280;32048;49.902;22.508;2022-08-21T09:46:20;98031.69;;;37.12;32.52
37634;BME280;32048;49.902;22.508;2022-08-21T09:48:50;98025.50;;;37.68;30.34
37634;BME280;32048;49.902;22.508;2022-08-21T09:51:21;98016.97;;;37.90;31.00
37634;BME280;32048;49.902;22.508;2022-08-21T09:54:00;98024.94;;;36.87;30.80
37634;BME280;32048;49.902;22.508;2022-08-21T09:56:39;98018.66;;;36.44;31.99
37634;BME280;32048;49.902;22.508;2022-08-21T09:59:35;98017.13;;;35.89;32.69
37634;BME280;32048;49.902;22.508;2022-08-21T10:04:56;98016.13;;;34.96;35.16
37634;BME280;32048;49.902;22.508;2022-08-21T10:07:26;98014.84;;;34.09;34.59
37634;BME280;32048;49.902;22.508;2022-08-21T10:10:04;98008.03;;;33.61;36.56
37634;BME280;32048;49.902;22.508;2022-08-21T10:12:39;98012.44;;;33.62;37.31
37634;BME280;32048;49.902;22.508;2022-08-21T10:15:18;98010.03;;;33.66;37.40
37634;BME280;32048;49.902;22.508;2022-08-21T10:25:46;98007.84;;;32.46;37.31
37634;BME280;32048;49.902;22.508;2022-08-21T10:28:50;98002.75;;;32.15;39.25
37634;BME280;32048;49.902;22.508;2022-08-21T10:31:30;98009.41;;;32.30;40.59
37634;BME280;32048;49.902;22.508;2022-08-21T10:40:00;98013.81;;;33.48;36.24
37634;BME280;32048;49.902;22.508;2022-08-21T10:45:52;98007.44;;;34.44;34.40
37634;BME280;32048;49.902;22.508;2022-08-21T10:48:36;98004.19;;;34.64;35.88
37634;BME280;32048;49.902;22.508;2022-08-21T10:51:10;98004.06;;;35.19;32.67
37634;BME280;32048;49.902;22.508;2022-08-21T10:56:30;98004.16;;;36.16;33.46
37634;BME280;32048;49.902;22.508;2022-08-21T11:01:39;97999.56;;;36.32;32.15
37634;BME280;32048;49.902;22.508;2022-08-21T11:06:47;98000.47;;;34.75;33.76
37634;BME280;32048;49.902;22.508;2022-08-21T11:09:22;97993.50;;;34.28;35.09
37634;BME280;32048;49.902;22.508;2022-08-21T11:11:56;98000.53;;;34.41;35.61
37634;BME280;32048;49.902;22.508;2022-08-21T11:17:19;97991.13;;;35.69;32.99
37634;BME280;32048;49.902;22.508;2022-08-21T11:19:53;97988.41;;;36.07;32.41
37634;BME280;32048;49.902;22.508;2022-08-21T11:22:26;97984.34;;;36.14;31.55
37634;BME280;32048;49.902;22.508;2022-08-21T11:27:44;97979.72;;;36.68;31.27
37634;BME280;32048;49.902;22.508;2022-08-21T11:30:13;97976.63;;;37.12;30.67
37634;BME280;32048;49.902;22.508;2022-08-21T11:38:37;97993.91;;;37.07;27.69
37634;BME280;32048;49.902;22.508;2022-08-21T11:41:28;97989.13;;;36.77;28.34
37634;BME280;32048;49.902;22.508;2022-08-21T11:46:49;97975.41;;;36.92;29.41
37634;BME280;32048;49.902;22.508;2022-08-21T11:52:25;97968.34;;;38.60;27.47
37634;BME280;32048;49.902;22.508;2022-08-21T11:55:01;97970.72;;;39.37;26.87
37634;BME280;32048;49.902;22.508;2022-08-21T11:57:39;97972.91;;;39.80;25.57
37634;BME280;32048;49.902;22.508;2022-08-21T12:00:19;97973.47;;;38.93;26.77
37634;BME280;32048;49.902;22.508;2022-08-21T12:02:51;97973.34;;;37.20;28.55
37634;BME280;32048;49.902;22.508;2022-08-21T12:05:26;97970.31;;;35.78;30.98
37634;BME280;32048;49.902;22.508;2022-08-21T12:14:13;97966.69;;;33.46;34.26
37634;BME280;32048;49.902;22.508;2022-08-21T12:16:49;97957.69;;;33.05;35.35
37634;BME280;32048;49.902;22.508;2022-08-21T12:24:39;97944.91;;;32.29;37.77
37634;BME280;32048;49.902;22.508;2022-08-21T12:29:45;97950.38;;;31.82;38.75
37634;BME280;32048;49.902;22.508;2022-08-21T12:34:55;97946.66;;;31.23;39.18
37634;BME280;32048;49.902;22.508;2022-08-21T12:37:40;97936.19;;;31.08;39.75
37634;BME280;32048;49.902;22.508;2022-08-21T12:42:48;97933.66;;;30.76;41.26
37634;BME280;32048;49.902;22.508;2022-08-21T12:45:36;97926.47;;;30.63;41.55
37634;BME280;32048;49.902;22.508;2022-08-21T12:48:26;97931.56;;;30.60;41.52
37634;BME280;32048;49.902;22.508;2022-08-21T12:50:58;97930.50;;;30.61;41.95
37634;BME280;32048;49.902;22.508;2022-08-21T12:53:42;97933.38;;;30.66;42.51
37634;BME280;32048;49.902;22.508;2022-08-21T12:56:13;97924.78;;;30.81;41.85
37634;BME280;32048;49.902;22.508;2022-08-21T12:58:45;97933.00;;;31.11;40.63
37634;BME280;32048;49.902;22.508;2022-08-21T13:03:46;97920.00;;;32.02;39.83
37634;BME280;32048;49.902;22.508;2022-08-21T13:06:29;97930.41;;;32.53;39.22
37634;BME280;32048;49.902;22.508;2022-08-21T13:09:04;97934.13;;;32.75;36.63
37634;BME280;32048;49.902;22.508;2022-08-21T13:11:33;97924.88;;;32.64;37.30
37634;BME280;32048;49.902;22.508;2022-08-21T13:14:01;97921.25;;;32.59;37.92
37634;BME280;32048;49.902;22.508;2022-08-21T13:16:31;97920.28;;;32.65;37.19
37634;BME280;32048;49.902;22.508;2022-08-21T13:19:06;97923.09;;;32.70;37.79
37634;BME280;32048;49.902;22.508;2022-08-21T13:21:38;97917.78;;;32.63;38.05
37634;BME280;32048;49.902;22.508;2022-08-21T13:27:27;97920.66;;;32.45;39.92
37634;BME280;32048;49.902;22.508;2022-08-21T13:30:18;97920.88;;;32.43;39.12
37634;BME280;32048;49.902;22.508;2022-08-21T13:32:50;97924.25;;;32.22;39.79
37634;BME280;32048;49.902;22.508;2022-08-21T13:35:21;97919.63;;;32.10;39.79
37634;BME280;32048;49.902;22.508;2022-08-21T13:37:49;97916.56;;;32.07;40.23
37634;BME280;32048;49.902;22.508;2022-08-21T13:40:23;97911.91;;;32.07;40.53
37634;BME280;32048;49.902;22.508;2022-08-21T13:42:51;97923.66;;;31.96;40.25
37634;BME280;32048;49.902;22.508;2022-08-21T13:45:24;97935.28;;;31.80;41.54
37634;BME280;32048;49.902;22.508;2022-08-21T13:47:52;97931.09;;;31.54;40.15
37634;BME280;32048;49.902;22.508;2022-08-21T13:50:22;97931.88;;;31.31;41.39
37634;BME280;32048;49.902;22.508;2022-08-21T13:52:58;97930.28;;;31.23;41.21
37634;BME280;32048;49.902;22.508;2022-08-21T13:55:38;97933.47;;;31.08;41.67
37634;BME280;32048;49.902;22.508;2022-08-21T13:58:05;97940.88;;;31.01;42.38
37634;BME280;32048;49.902;22.508;2022-08-21T14:00:35;97937.41;;;31.12;42.46
37634;BME280;32048;49.902;22.508;2022-08-21T14:03:10;97939.44;;;31.28;40.95
37634;BME280;32048;49.902;22.508;2022-08-21T14:05:45;97935.72;;;31.41;40.84
37634;BME280;32048;49.902;22.508;2022-08-21T14:10:56;97945.03;;;31.34;40.35
37634;BME280;32048;49.902;22.508;2022-08-21T14:13:42;97947.03;;;31.26;41.16
37634;BME280;32048;49.902;22.508;2022-08-21T14:16:25;97952.59;;;31.20;40.89
37634;BME280;32048;49.902;22.508;2022-08-21T14:21:32;97947.81;;;31.15;42.11
37634;BME280;32048;49.902;22.508;2022-08-21T14:24:09;97957.94;;;30.96;41.96
37634;BME280;32048;49.902;22.508;2022-08-21T14:26:44;97954.03;;;30.92;42.28
37634;BME280;32048;49.902;22.508;2022-08-21T14:29:15;97961.13;;;30.93;41.87